Time;durP1;ratioP1;P1;durP2;ratioP2;P2;SDS_P1;SDS_P2;PMS_P1;PMS_P2;Temp;Humidity;BMP_temperature;BMP_pressure;BME280_temperature;BME280_humidity;BME280_pressure;Samples;Min_cycle;Max_cycle;Signal;HPM_P1;HPM_P2
2022/09/01 00:00:17;;;;;;;;;;;23.10;92.40;23.00;99385.00;;;;339245;28;82581;-88
2022/09/01 00:00:29;;;;;;;;;;;23.00;92.40;23.10;99392.00;;;;340409;28;91501;-88
2022/09/01 00:00:50;;;;;;;;;;;23.00;92.30;23.10;99389.00;;;;342150;28;82511;-88
2022/09/01 00:01:02;;;;;;;;;;;23.10;92.40;23.00;99384.00;;;;341601;28;91433;-87
2022/09/01 00:01:19;;;;;;;;;;;23.00;92.50;23.00;99385.00;;;;340717;28;82348;-87
2022/09/01 00:01:33;;;;;;;;;;;23.00;92.60;23.00;99384.00;;;;339012;28;91740;-88
2022/09/01 00:01:47;;;;;;;;;;;23.00;92.40;23.10;99384.00;;;;340639;28;83180;-88
2022/09/01 00:02:05;;;;;;;;;;;23.00;92.40;23.10;99385.00;;;;341733;28;91111;-88
2022/09/01 00:02:17;;;;;;;;;;;23.00;92.40;23.20;99383.00;;;;342350;28;83482;-88
2022/09/01 00:02:29;;;;;;;;;;;23.00;92.50;23.30;99382.00;;;;339999;28;91175;-88
2022/09/01 00:02:42;;;;;;;;;;;23.00;92.40;23.30;99387.00;;;;339256;28;82484;-86
2022/09/01 00:02:54;;;;;;;;;;;23.00;92.60;23.20;99384.00;;;;340176;28;91963;-87
2022/09/01 00:03:09;;;;;;;;;;;23.00;92.30;23.20;99383.00;;;;339308;28;83521;-87
2022/09/01 00:03:24;;;;;;;;;;;23.00;92.30;23.00;99385.00;;;;339036;28;88776;-88
2022/09/01 00:03:37;;;;;;;;;;;23.00;92.50;23.20;99385.00;;;;341962;28;83614;-87
2022/09/01 00:03:51;;;;;;;;;;;23.00;92.40;23.10;99381.00;;;;339959;28;89655;-88
2022/09/01 00:04:03;;;;;;;;;;;23.00;92.50;23.10;99383.00;;;;340812;28;83472;-87
2022/09/01 00:04:18;;;;;;;;;;;23.00;92.50;23.20;99388.00;;;;339220;28;87963;-88
2022/09/01 00:04:30;;;;;;;;;;;23.00;92.60;23.20;99383.00;;;;340818;28;83561;-88
2022/09/01 00:04:43;;;;;;;;;;;23.00;92.60;23.30;99393.00;;;;341506;28;91839;-88
2022/09/01 00:04:59;;;;;;;;;;;23.00;92.40;23.20;99388.00;;;;340922;28;83401;-88
2022/09/01 00:05:11;;;;;;;;;;;23.00;92.30;23.20;99382.00;;;;338935;28;90300;-87
2022/09/01 00:05:23;;;;;;;;;;;23.00;92.30;23.20;99384.00;;;;337898;28;83423;-88
2022/09/01 00:05:36;;;;;;;;;;;23.00;92.20;23.30;99388.00;;;;339072;28;90380;-88
2022/09/01 00:05:53;;;;;;;;;;;23.10;92.30;23.20;99380.00;;;;337911;28;82438;-87
2022/09/01 00:06:08;;;;;;;;;;;23.00;92.20;23.20;99395.00;;;;337591;28;92334;-88
2022/09/01 00:06:22;;;;;;;;;;;23.00;92.20;23.10;99382.00;;;;338170;28;83264;-87
2022/09/01 00:06:34;;;;;;;;;;;23.00;92.20;23.20;99385.00;;;;338942;28;91468;-88
2022/09/01 00:06:47;;;;;;;;;;;23.00;92.20;23.10;99392.00;;;;340756;28;82504;-87
2022/09/01 00:06:59;;;;;;;;;;;23.00;92.20;23.20;99384.00;;;;338810;28;91051;-88
2022/09/01 00:07:12;;;;;;;;;;;23.00;92.20;23.00;99384.00;;;;339572;28;83469;-88
2022/09/01 00:07:30;;;;;;;;;;;23.00;92.30;23.00;99388.00;;;;340338;28;89835;-87
2022/09/01 00:07:42;;;;;;;;;;;23.00;92.50;22.80;99396.00;;;;339334;28;83377;-87
2022/09/01 00:07:54;;;;;;;;;;;23.00;92.60;22.90;99394.00;;;;338872;28;89961;-87
2022/09/01 00:08:06;;;;;;;;;;;23.00;92.70;22.90;99388.00;;;;340781;28;82522;-87
2022/09/01 00:08:18;;;;;;;;;;;23.00;92.60;23.00;99395.00;;;;347405;28;90026;-88
2022/09/01 00:08:30;;;;;;;;;;;23.00;92.60;23.10;99385.00;;;;341899;28;83605;-88
2022/09/01 00:08:42;;;;;;;;;;;23.00;92.50;23.10;99385.00;;;;338951;28;89990;-88
2022/09/01 00:08:55;;;;;;;;;;;23.00;92.40;23.20;99386.00;;;;339410;28;82453;-87
2022/09/01 00:09:09;;;;;;;;;;;23.00;92.40;23.10;99384.00;;;;339014;28;92274;-87
2022/09/01 00:09:21;;;;;;;;;;;23.00;92.40;23.10;99391.00;;;;339429;28;83509;-88
2022/09/01 00:09:33;;;;;;;;;;;23.00;92.40;23.00;99391.00;;;;340377;28;90528;-88
2022/09/01 00:09:45;;;;;;;;;;;23.00;92.60;22.90;99393.00;;;;339242;28;82470;-87
2022/09/01 00:10:00;;;;;;;;;;;23.00;92.70;23.00;99394.00;;;;339602;28;90201;-88
2022/09/01 00:10:12;;;;;;;;;;;23.00;92.70;23.00;99384.00;;;;338053;28;82327;-88
2022/09/01 00:10:24;;;;;;;;;;;23.00;92.60;23.10;99386.00;;;;337567;28;91283;-87
2022/09/01 00:10:36;;;;;;;;;;;23.00;92.60;23.20;99385.00;;;;339153;28;83221;-88
2022/09/01 00:10:48;;;;;;;;;;;23.00;92.60;23.10;99390.00;;;;338703;28;90041;-87
2022/09/01 00:11:00;;;;;;;;;;;23.00;92.50;23.00;99385.00;;;;339172;28;82405;-88
2022/09/01 00:11:12;;;;;;;;;;;23.00;92.40;23.00;99378.00;;;;338738;28;91244;-88
2022/09/01 00:11:24;;;;;;;;;;;23.00;92.40;23.00;99381.00;;;;340763;28;82464;-88
2022/09/01 00:11:37;;;;;;;;;;;23.00;92.30;23.10;99387.00;;;;337725;28;91324;-87
2022/09/01 00:11:52;;;;;;;;;;;23.00;92.30;23.00;99383.00;;;;338050;28;83589;-88
2022/09/01 00:12:05;;;;;;;;;;;23.00;92.50;23.10;99385.00;;;;339991;28;91152;-87
2022/09/01 00:12:17;;;;;;;;;;;23.00;92.50;23.10;99382.00;;;;339011;28;83593;-88
2022/09/01 00:12:29;;;;;;;;;;;23.00;92.50;23.20;99381.00;;;;340154;28;90015;-87
2022/09/01 00:12:42;;;;;;;;;;;23.00;92.60;23.20;99386.00;;;;339535;28;83220;-88
2022/09/01 00:12:53;;;;;;;;;;;23.00;92.50;23.00;99383.00;;;;337516;28;89190;-87
2022/09/01 00:13:06;;;;;;;;;;;23.00;92.60;22.90;99384.00;;;;339235;28;83418;-88
2022/09/01 00:13:17;;;;;;;;;;;23.00;92.60;23.10;99387.00;;;;337367;28;91514;-88
2022/09/01 00:13:32;;;;;;;;;;;23.00;92.50;23.00;99384.00;;;;339280;28;82446;-88
2022/09/01 00:13:43;;;;;;;;;;;22.90;92.50;23.00;99387.00;;;;340008;28;91210;-87
2022/09/01 00:13:55;;;;;;;;;;;23.00;92.50;23.10;99383.00;;;;339117;28;84234;-87
2022/09/01 00:14:08;;;;;;;;;;;23.00;92.50;23.10;99387.00;;;;341533;28;88973;-87
2022/09/01 00:14:40;;;;;;;;;;;23.00;92.60;23.00;99392.00;;;;339354;28;82510;-87
2022/09/01 00:14:52;;;;;;;;;;;22.90;92.60;23.00;99382.00;;;;338460;28;89499;-88
2022/09/01 00:15:05;;;;;;;;;;;22.90;92.50;23.00;99391.00;;;;337699;28;83428;-88
2022/09/01 00:15:17;;;;;;;;;;;22.90;92.60;23.00;99390.00;;;;337529;28;91578;-87
2022/09/01 00:15:28;;;;;;;;;;;22.90;92.90;22.90;99386.00;;;;337888;28;83438;-88
2022/09/01 00:15:40;;;;;;;;;;;22.90;92.80;22.90;99377.00;;;;338638;28;92999;-88
2022/09/01 00:15:53;;;;;;;;;;;22.90;92.70;22.80;99375.00;;;;340310;28;83503;-87
2022/09/01 00:16:05;;;;;;;;;;;22.90;92.80;22.80;99380.00;;;;338672;28;90204;-88
2022/09/01 00:16:18;;;;;;;;;;;22.80;92.90;22.90;99382.00;;;;338865;28;83680;-87
2022/09/01 00:16:30;;;;;;;;;;;22.80;92.80;22.90;99379.00;;;;338631;28;91233;-87
2022/09/01 00:16:41;;;;;;;;;;;22.80;92.70;22.90;99380.00;;;;336467;29;83295;-87
2022/09/01 00:16:53;;;;;;;;;;;22.80;92.90;23.00;99381.00;;;;340082;28;91430;-88
2022/09/01 00:17:07;;;;;;;;;;;22.90;92.70;23.00;99379.00;;;;341890;28;83078;-87
2022/09/01 00:17:19;;;;;;;;;;;22.90;92.60;23.00;99378.00;;;;338532;28;90188;-87
2022/09/01 00:17:31;;;;;;;;;;;22.90;92.60;23.00;99373.00;;;;340449;28;83411;-88
2022/09/01 00:17:43;;;;;;;;;;;22.80;92.70;22.90;99381.00;;;;338401;28;91023;-87
2022/09/01 00:17:55;;;;;;;;;;;22.80;92.90;22.90;99375.00;;;;340340;28;83400;-87
2022/09/01 00:18:07;;;;;;;;;;;22.80;92.90;22.90;99383.00;;;;337308;28;90161;-87
2022/09/01 00:18:18;;;;;;;;;;;22.80;92.90;22.80;99371.00;;;;340454;28;83301;-87
2022/09/01 00:18:31;;;;;;;;;;;22.80;92.90;22.80;99381.00;;;;341189;28;90317;-87
2022/09/01 00:18:45;;;;;;;;;;;22.80;92.80;22.70;99368.00;;;;337850;28;83367;-88
2022/09/01 00:18:57;;;;;;;;;;;22.80;92.70;22.70;99370.00;;;;338570;28;91774;-87
2022/09/01 00:19:09;;;;;;;;;;;22.80;92.70;22.80;99386.00;;;;337740;28;83385;-88
2022/09/01 00:19:22;;;;;;;;;;;22.80;92.60;22.80;99378.00;;;;339903;28;90577;-87
2022/09/01 00:19:34;;;;;;;;;;;22.80;92.60;22.80;99368.00;;;;341807;28;83607;-88
2022/09/01 00:19:46;;;;;;;;;;;22.80;92.70;22.80;99375.00;;;;338486;28;91080;-88
2022/09/01 00:19:58;;;;;;;;;;;22.80;92.60;22.80;99375.00;;;;341723;28;82468;-89
2022/09/01 00:20:10;;;;;;;;;;;22.80;92.60;22.80;99383.00;;;;338571;28;91658;-88
2022/09/01 00:20:21;;;;;;;;;;;22.80;92.60;22.90;99371.00;;;;337907;28;83277;-88
2022/09/01 00:20:33;;;;;;;;;;;22.80;92.60;23.00;99376.00;;;;337355;28;90140;-88
2022/09/01 00:20:45;;;;;;;;;;;22.80;92.80;23.00;99376.00;;;;339030;28;82577;-87
2022/09/01 00:20:58;;;;;;;;;;;22.80;92.90;22.80;99379.00;;;;337234;28;91194;-87
2022/09/01 00:21:10;;;;;;;;;;;22.80;92.90;22.80;99373.00;;;;337854;28;83515;-87
2022/09/01 00:21:25;;;;;;;;;;;22.80;93.10;22.70;99376.00;;;;339850;28;90718;-88
2022/09/01 00:21:39;;;;;;;;;;;22.80;92.80;22.80;99380.00;;;;339164;28;82398;-87
2022/09/01 00:21:51;;;;;;;;;;;22.80;92.70;22.80;99379.00;;;;338565;28;92754;-87
2022/09/01 00:22:03;;;;;;;;;;;22.80;92.70;22.90;99379.00;;;;337724;28;83395;-88
2022/09/01 00:22:15;;;;;;;;;;;22.80;92.70;22.90;99378.00;;;;337357;28;92054;-87
2022/09/01 00:22:26;;;;;;;;;;;22.80;92.70;22.90;99377.00;;;;344692;28;83389;-88
2022/09/01 00:22:38;;;;;;;;;;;22.80;92.70;22.80;99375.00;;;;337374;28;91460;-87
2022/09/01 00:22:50;;;;;;;;;;;22.80;92.80;22.90;99382.00;;;;344866;28;82532;-87
2022/09/01 00:23:02;;;;;;;;;;;22.70;92.80;23.00;99379.00;;;;338707;28;90072;-87
2022/09/01 00:23:13;;;;;;;;;;;22.70;92.90;23.00;99378.00;;;;337945;28;83101;-87
2022/09/01 00:23:26;;;;;;;;;;;22.70;93.10;23.10;99373.00;;;;338826;28;89448;-87
2022/09/01 00:23:38;;;;;;;;;;;22.80;93.00;23.00;99377.00;;;;339305;28;83530;-86
2022/09/01 00:23:50;;;;;;;;;;;22.80;92.90;22.80;99382.00;;;;338615;28;92172;-87
2022/09/01 00:24:02;;;;;;;;;;;22.80;92.90;22.80;99381.00;;;;339117;28;82490;-87
2022/09/01 00:24:15;;;;;;;;;;;22.80;92.90;22.90;99378.00;;;;340039;28;90106;-87
2022/09/01 00:24:26;;;;;;;;;;;22.80;92.80;22.80;99375.00;;;;338712;28;83412;-88
2022/09/01 00:24:38;;;;;;;;;;;22.80;92.80;22.80;99376.00;;;;337345;28;88766;-87
2022/09/01 00:24:50;;;;;;;;;;;22.80;92.90;22.80;99380.00;;;;340031;28;83938;-87
2022/09/01 00:25:02;;;;;;;;;;;22.80;92.90;22.80;99382.00;;;;338556;28;90123;-87
2022/09/01 00:25:14;;;;;;;;;;;22.80;92.80;22.80;99381.00;;;;339116;28;83407;-88
2022/09/01 00:25:26;;;;;;;;;;;22.80;92.80;22.80;99376.00;;;;337412;28;91569;-87
2022/09/01 00:25:38;;;;;;;;;;;22.70;92.80;22.80;99378.00;;;;337794;28;83490;-87
2022/09/01 00:25:50;;;;;;;;;;;22.70;92.70;22.80;99382.00;;;;338532;28;92668;-88
2022/09/01 00:26:03;;;;;;;;;;;22.70;92.80;22.80;99381.00;;;;339064;28;83402;-87
2022/09/01 00:26:14;;;;;;;;;;;22.80;92.70;22.80;99378.00;;;;337311;28;90359;-86
2022/09/01 00:26:26;;;;;;;;;;;22.70;92.70;22.90;99372.00;;;;340348;28;83488;-87
2022/09/01 00:26:38;;;;;;;;;;;22.70;92.70;23.00;99382.00;;;;337320;28;90148;-87
2022/09/01 00:26:50;;;;;;;;;;;22.70;92.90;23.00;99381.00;;;;337834;28;83439;-87
2022/09/01 00:27:02;;;;;;;;;;;22.70;93.00;22.90;99386.00;;;;338683;28;91344;-87
2022/09/01 00:27:14;;;;;;;;;;;22.70;93.00;22.90;99377.00;;;;339094;28;83403;-88
2022/09/01 00:27:25;;;;;;;;;;;22.70;93.10;22.80;99388.00;;;;337474;28;91916;-87
2022/09/01 00:27:41;;;;;;;;;;;22.70;93.00;22.80;99380.00;;;;339074;28;83547;-86
2022/09/01 00:27:58;;;;;;;;;;;22.70;92.90;22.90;99382.00;;;;338716;28;92889;-87
2022/09/01 00:28:09;;;;;;;;;;;22.70;92.90;22.80;99387.00;;;;339293;28;83436;-88
2022/09/01 00:28:21;;;;;;;;;;;22.80;92.90;22.80;99380.00;;;;336211;29;91572;-87
2022/09/01 00:28:39;;;;;;;;;;;22.70;93.00;22.70;99382.00;;;;337750;28;83892;-88
2022/09/01 00:28:51;;;;;;;;;;;22.70;93.10;22.60;99378.00;;;;340120;28;91281;-87
2022/09/01 00:29:03;;;;;;;;;;;22.70;93.10;22.60;99380.00;;;;339114;28;82463;-88
2022/09/01 00:29:15;;;;;;;;;;;22.70;93.10;22.60;99376.00;;;;338530;28;90252;-87
2022/09/01 00:29:27;;;;;;;;;;;22.70;93.10;22.60;99382.00;;;;341764;28;83310;-87
2022/09/01 00:29:39;;;;;;;;;;;22.70;93.10;22.60;99378.00;;;;338316;28;89709;-88
2022/09/01 00:29:54;;;;;;;;;;;22.70;93.10;22.70;99380.00;;;;338970;28;83412;-87
2022/09/01 00:30:07;;;;;;;;;;;22.70;93.00;22.70;99385.00;;;;335776;28;92379;-88
2022/09/01 00:30:19;;;;;;;;;;;22.70;93.00;22.80;99373.00;;;;339151;28;83275;-87
2022/09/01 00:30:31;;;;;;;;;;;22.70;92.90;22.70;99376.00;;;;337319;28;91095;-87
2022/09/01 00:30:43;;;;;;;;;;;22.70;93.20;22.60;99380.00;;;;337894;28;82451;-88
2022/09/01 00:30:54;;;;;;;;;;;22.70;93.20;22.60;99377.00;;;;338779;28;90777;-87
2022/09/01 00:31:06;;;;;;;;;;;22.70;93.20;22.50;99382.00;;;;341515;28;83378;-88
2022/09/01 00:31:19;;;;;;;;;;;22.70;93.20;22.60;99376.00;;;;338869;28;90350;-87
2022/09/01 00:31:31;;;;;;;;;;;22.70;93.30;22.70;99377.00;;;;337876;28;82487;-88
2022/09/01 00:31:43;;;;;;;;;;;22.60;93.10;22.70;99376.00;;;;345674;28;90293;-88
2022/09/01 00:31:55;;;;;;;;;;;22.70;93.10;22.70;99375.00;;;;340426;28;83380;-87
2022/09/01 00:32:07;;;;;;;;;;;22.60;93.00;22.80;99385.00;;;;339748;28;92589;-88
2022/09/01 00:32:18;;;;;;;;;;;22.70;93.10;22.90;99382.00;;;;340568;28;82424;-87
2022/09/01 00:32:30;;;;;;;;;;;22.70;93.10;22.80;99377.00;;;;339834;28;89088;-88
2022/09/01 00:32:45;;;;;;;;;;;22.70;93.10;22.70;99370.00;;;;339027;28;83289;-87
2022/09/01 00:32:57;;;;;;;;;;;22.70;93.30;22.70;99381.00;;;;341355;28;88031;-87
2022/09/01 00:33:09;;;;;;;;;;;22.70;93.30;22.80;99375.00;;;;340313;28;82332;-88
2022/09/01 00:33:21;;;;;;;;;;;22.60;93.20;22.70;99380.00;;;;339795;28;90481;-88
2022/09/01 00:33:33;;;;;;;;;;;22.60;93.20;22.80;99376.00;;;;337712;28;82311;-87
2022/09/01 00:33:46;;;;;;;;;;;22.60;93.20;22.90;99381.00;;;;338480;28;91589;-88
2022/09/01 00:33:58;;;;;;;;;;;22.70;93.20;22.80;99380.00;;;;340288;28;83266;-88
2022/09/01 00:34:09;;;;;;;;;;;22.70;93.10;22.70;99374.00;;;;339924;28;88391;-88
2022/09/01 00:34:21;;;;;;;;;;;22.70;93.20;22.80;99379.00;;;;338998;28;83334;-87
2022/09/01 00:34:33;;;;;;;;;;;22.70;93.10;22.80;99369.00;;;;342080;27;91283;-88
2022/09/01 00:34:45;;;;;;;;;;;22.70;93.10;22.70;99373.00;;;;340261;28;84485;-88
2022/09/01 00:34:57;;;;;;;;;;;22.70;93.10;22.70;99374.00;;;;337136;28;92002;-88
2022/09/01 00:35:09;;;;;;;;;;;22.60;93.00;22.80;99377.00;;;;338902;28;83374;-87
2022/09/01 00:35:20;;;;;;;;;;;22.70;93.00;22.80;99378.00;;;;338666;28;90444;-88
2022/09/01 00:35:33;;;;;;;;;;;22.60;92.90;22.70;99379.00;;;;339000;28;82402;-88
2022/09/01 00:35:48;;;;;;;;;;;22.60;92.90;22.80;99380.00;;;;338534;28;91436;-88
2022/09/01 00:36:00;;;;;;;;;;;22.60;92.90;22.90;99379.00;;;;337580;28;83399;-88
2022/09/01 00:36:11;;;;;;;;;;;22.70;93.00;22.90;99376.00;;;;342313;27;90818;-88
2022/09/01 00:36:23;;;;;;;;;;;22.70;92.90;22.80;99381.00;;;;345835;28;83485;-88
2022/09/01 00:36:35;;;;;;;;;;;22.70;92.90;22.80;99382.00;;;;339745;28;89478;-88
2022/09/01 00:36:47;;;;;;;;;;;22.70;93.00;22.80;99380.00;;;;340231;28;82542;-88
2022/09/01 00:36:58;;;;;;;;;;;22.70;92.90;22.80;99374.00;;;;341115;28;89811;-88
2022/09/01 00:37:10;;;;;;;;;;;22.70;92.80;22.80;99383.00;;;;339037;28;83484;-88
2022/09/01 00:37:22;;;;;;;;;;;22.70;92.80;22.90;99379.00;;;;339983;28;91423;-86
2022/09/01 00:37:34;;;;;;;;;;;22.70;92.90;22.90;99375.00;;;;337660;28;82501;-88
2022/09/01 00:37:45;;;;;;;;;;;22.70;92.80;22.80;99384.00;;;;339778;28;90430;-88
2022/09/01 00:37:57;;;;;;;;;;;22.70;92.80;22.70;99376.00;;;;339054;28;82401;-88
2022/09/01 00:38:11;;;;;;;;;;;22.70;92.80;22.70;99377.00;;;;346685;28;92857;-88
2022/09/01 00:38:23;;;;;;;;;;;22.70;92.80;22.80;99377.00;;;;337608;28;83333;-87
2022/09/01 00:38:35;;;;;;;;;;;22.70;92.90;22.80;99381.00;;;;345533;28;89936;-87
2022/09/01 00:38:46;;;;;;;;;;;22.60;92.90;22.80;99378.00;;;;337676;28;83429;-87
2022/09/01 00:38:58;;;;;;;;;;;22.60;92.90;22.80;99380.00;;;;341368;28;90089;-88
2022/09/01 00:39:10;;;;;;;;;;;22.70;92.90;22.80;99380.00;;;;347256;28;82573;-88
2022/09/01 00:39:22;;;;;;;;;;;22.60;92.90;22.80;99385.00;;;;347124;28;88749;-87
2022/09/01 00:39:33;;;;;;;;;;;22.70;92.90;22.70;99384.00;;;;342870;28;83388;-88
2022/09/01 00:39:45;;;;;;;;;;;22.60;93.10;22.70;99377.00;;;;338254;28;90116;-88
2022/09/01 00:39:57;;;;;;;;;;;22.60;93.10;22.60;99375.00;;;;337537;28;82513;-87
2022/09/01 00:40:10;;;;;;;;;;;22.60;93.10;22.70;99384.00;;;;341321;28;91293;-88
2022/09/01 00:40:22;;;;;;;;;;;22.60;93.10;22.80;99381.00;;;;339064;28;82394;-88
2022/09/01 00:40:34;;;;;;;;;;;22.60;93.00;22.80;99379.00;;;;338547;28;90390;-88
2022/09/01 00:40:46;;;;;;;;;;;22.70;93.10;22.70;99380.00;;;;345802;28;83533;-88
2022/09/01 00:40:59;;;;;;;;;;;22.60;93.10;22.70;99388.00;;;;345515;28;91391;-88
2022/09/01 00:41:11;;;;;;;;;;;22.60;93.00;22.70;99386.00;;;;340135;28;83610;-87
2022/09/01 00:41:25;;;;;;;;;;;22.60;92.90;22.70;99381.00;;;;340001;28;90972;-87
2022/09/01 00:41:37;;;;;;;;;;;22.60;92.90;22.60;99382.00;;;;340362;28;83487;-88
2022/09/01 00:41:50;;;;;;;;;;;22.60;92.80;22.70;99381.00;;;;342508;28;90975;-88
2022/09/01 00:42:02;;;;;;;;;;;22.60;92.80;22.70;99381.00;;;;340414;28;82492;-88
2022/09/01 00:42:13;;;;;;;;;;;22.60;92.80;22.80;99377.00;;;;338552;28;92248;-88
2022/09/01 00:42:25;;;;;;;;;;;22.60;92.80;22.80;99392.00;;;;337709;28;83350;-88
2022/09/01 00:42:38;;;;;;;;;;;22.60;92.80;22.80;99385.00;;;;341256;28;90884;-87
2022/09/01 00:42:52;;;;;;;;;;;22.60;92.90;22.70;99381.00;;;;340622;28;83262;-88
2022/09/01 00:43:39;;;;;;;;;;;22.60;93.00;22.90;99387.00;;;;340055;28;91161;-87
2022/09/01 00:44:03;;;;;;;;;;;22.60;93.10;22.70;99388.00;;;;340518;28;83285;-88
2022/09/01 00:44:17;;;;;;;;;;;22.60;93.20;22.60;99381.00;;;;336480;28;89445;-87
2022/09/01 00:44:30;;;;;;;;;;;22.60;93.00;22.70;99388.00;;;;339329;28;82618;-88
2022/09/01 00:44:42;;;;;;;;;;;22.60;92.90;22.60;99390.00;;;;340181;28;89190;-87
2022/09/01 00:44:56;;;;;;;;;;;22.60;92.90;22.70;99386.00;;;;341750;28;83651;-87
2022/09/01 00:45:09;;;;;;;;;;;22.60;92.80;22.70;99381.00;;;;337438;28;92406;-86
2022/09/01 00:45:20;;;;;;;;;;;22.60;92.80;22.70;99384.00;;;;337985;28;83299;-88
2022/09/01 00:45:33;;;;;;;;;;;22.50;92.80;22.70;99381.00;;;;338908;28;91236;-88
2022/09/01 00:45:45;;;;;;;;;;;22.60;92.80;22.70;99385.00;;;;339233;28;83256;-88
2022/09/01 00:45:57;;;;;;;;;;;22.60;92.80;22.70;99384.00;;;;338783;28;90691;-87
2022/09/01 00:46:13;;;;;;;;;;;22.60;92.80;22.80;99385.00;;;;339316;28;82643;-88
2022/09/01 00:46:31;;;;;;;;;;;22.60;92.80;22.70;99382.00;;;;337411;28;90515;-88
2022/09/01 00:46:48;;;;;;;;;;;22.60;92.80;22.80;99380.00;;;;336537;28;83472;-88
2022/09/01 00:47:06;;;;;;;;;;;22.50;92.80;22.70;99381.00;;;;337410;28;91657;-87
2022/09/01 00:47:18;;;;;;;;;;;22.60;92.80;22.70;99381.00;;;;339266;28;83426;-88
2022/09/01 00:47:29;;;;;;;;;;;22.50;92.80;22.70;99380.00;;;;339946;28;91410;-87
2022/09/01 00:47:41;;;;;;;;;;;22.50;92.80;22.70;99383.00;;;;340640;28;82561;-87
2022/09/01 00:47:53;;;;;;;;;;;22.50;92.80;22.60;99387.00;;;;337437;28;90045;-88
2022/09/01 00:48:05;;;;;;;;;;;22.50;92.90;22.60;99375.00;;;;339364;28;83292;-87
2022/09/01 00:48:19;;;;;;;;;;;22.50;92.90;22.60;99386.00;;;;338794;28;91640;-88
2022/09/01 00:48:31;;;;;;;;;;;22.50;92.80;22.70;99375.00;;;;339155;28;83659;-88
2022/09/01 00:48:43;;;;;;;;;;;22.50;92.80;22.70;99376.00;;;;336110;28;91197;-87
2022/09/01 00:49:02;;;;;;;;;;;22.60;92.90;22.70;99376.00;;;;334073;29;83360;-87
2022/09/01 00:49:48;;;;;;;;;;;22.60;92.80;22.70;99385.00;;;;337546;28;90500;-87
2022/09/01 00:50:00;;;;;;;;;;;22.50;92.90;22.70;99381.00;;;;339035;28;83737;-88
2022/09/01 00:50:13;;;;;;;;;;;22.50;92.90;22.70;99383.00;;;;337433;28;92870;-87
2022/09/01 00:50:25;;;;;;;;;;;22.50;93.00;22.70;99379.00;;;;338016;28;83394;-87
2022/09/01 00:50:37;;;;;;;;;;;22.60;93.00;22.60;99382.00;;;;336198;28;90330;-88
2022/09/01 00:50:49;;;;;;;;;;;22.50;93.00;22.70;99375.00;;;;338043;28;83552;-87
2022/09/01 00:51:05;;;;;;;;;;;22.50;93.00;22.70;99384.00;;;;340209;28;91332;-87
2022/09/01 00:51:17;;;;;;;;;;;22.50;92.90;22.70;99381.00;;;;344716;28;83420;-88
2022/09/01 00:51:29;;;;;;;;;;;22.50;92.80;22.80;99378.00;;;;343056;28;91365;-87
2022/09/01 00:51:43;;;;;;;;;;;22.50;92.80;22.80;99382.00;;;;342011;28;83431;-88
2022/09/01 00:52:29;;;;;;;;;;;22.60;92.80;22.70;99387.00;;;;336476;28;91497;-88
2022/09/01 00:52:47;;;;;;;;;;;22.50;92.90;22.80;99383.00;;;;343316;28;82439;-87
2022/09/01 00:52:59;;;;;;;;;;;22.60;92.70;22.80;99379.00;;;;338571;28;90293;-87
2022/09/01 00:53:11;;;;;;;;;;;22.60;92.70;22.70;99381.00;;;;339231;28;83561;-88
2022/09/01 00:53:25;;;;;;;;;;;22.60;92.80;22.70;99384.00;;;;338903;28;92453;-88
2022/09/01 00:53:36;;;;;;;;;;;22.60;93.10;22.80;99374.00;;;;337984;28;84098;-87
2022/09/01 00:53:50;;;;;;;;;;;22.60;92.80;22.70;99383.00;;;;339958;28;89170;-87
2022/09/01 00:54:02;;;;;;;;;;;22.60;92.80;22.60;99380.00;;;;336461;28;83390;-87
2022/09/01 00:54:17;;;;;;;;;;;22.60;92.80;22.70;99381.00;;;;337553;28;89116;-87
2022/09/01 00:54:32;;;;;;;;;;;22.60;92.80;22.70;99378.00;;;;339213;28;82619;-87
2022/09/01 00:54:45;;;;;;;;;;;22.60;92.70;22.70;99379.00;;;;336261;28;91015;-88
2022/09/01 00:55:03;;;;;;;;;;;22.60;92.60;22.70;99378.00;;;;339229;28;83490;-87
2022/09/01 00:55:17;;;;;;;;;;;22.60;92.60;22.70;99377.00;;;;337528;28;89057;-88
2022/09/01 00:55:30;;;;;;;;;;;22.60;92.60;22.70;99379.00;;;;339083;28;82536;-87
2022/09/01 00:55:43;;;;;;;;;;;22.60;92.60;22.70;99380.00;;;;338757;28;88329;-87
2022/09/01 00:55:55;;;;;;;;;;;22.60;92.60;22.70;99382.00;;;;338043;28;82397;-87
2022/09/01 00:56:07;;;;;;;;;;;22.60;92.50;22.60;99380.00;;;;340159;28;90363;-86
2022/09/01 00:56:18;;;;;;;;;;;22.60;92.50;22.70;99376.00;;;;336427;28;82418;-87
2022/09/01 00:56:30;;;;;;;;;;;22.60;92.50;22.60;99382.00;;;;338555;28;91497;-87
2022/09/01 00:56:42;;;;;;;;;;;22.60;92.50;22.70;99377.00;;;;340689;28;82362;-87
2022/09/01 00:56:57;;;;;;;;;;;22.60;92.50;22.70;99384.00;;;;340124;28;90879;-87
2022/09/01 00:57:09;;;;;;;;;;;22.60;92.50;22.60;99375.00;;;;337910;28;83552;-87
2022/09/01 00:57:21;;;;;;;;;;;22.60;92.50;22.60;99378.00;;;;338904;28;91386;-87
2022/09/01 00:57:32;;;;;;;;;;;22.60;92.50;22.70;99375.00;;;;340550;28;83436;-87
2022/09/01 00:57:44;;;;;;;;;;;22.60;92.50;22.60;99383.00;;;;338750;28;91451;-87
2022/09/01 00:57:56;;;;;;;;;;;22.60;92.50;22.60;99380.00;;;;336633;28;82553;-87
2022/09/01 00:58:08;;;;;;;;;;;22.60;92.50;22.70;99383.00;;;;338692;28;90381;-87
2022/09/01 00:58:30;;;;;;;;;;;22.60;92.50;22.60;99385.00;;;;341774;28;83492;-87
2022/09/01 00:58:42;;;;;;;;;;;22.60;92.60;22.60;99381.00;;;;337462;28;91259;-87
2022/09/01 00:58:54;;;;;;;;;;;22.50;92.50;22.50;99386.00;;;;338082;28;83595;-87
2022/09/01 00:59:06;;;;;;;;;;;22.50;92.50;22.50;99390.00;;;;338868;28;91350;-88
2022/09/01 00:59:18;;;;;;;;;;;22.50;92.50;22.60;99379.00;;;;337835;28;83455;-88
2022/09/01 00:59:30;;;;;;;;;;;22.50;92.50;22.70;99372.00;;;;334693;29;93041;-87
2022/09/01 00:59:48;;;;;;;;;;;22.50;92.50;22.70;99377.00;;;;337796;28;83430;-88
2022/09/01 01:00:10;;;;;;;;;;;22.50;92.70;22.60;99384.00;;;;338783;28;90230;-87
2022/09/01 01:00:24;;;;;;;;;;;22.50;92.80;22.60;99373.00;;;;336556;28;83319;-88
2022/09/01 01:00:42;;;;;;;;;;;22.60;92.70;22.70;99373.00;;;;336095;28;92118;-88
2022/09/01 01:00:54;;;;;;;;;;;22.60;92.70;22.70;99378.00;;;;337803;28;83487;-87
2022/09/01 01:01:06;;;;;;;;;;;22.50;92.60;22.60;99373.00;;;;338372;28;89991;-87
2022/09/01 01:01:18;;;;;;;;;;;22.50;92.60;22.60;99382.00;;;;346201;28;83449;-87
2022/09/01 01:01:30;;;;;;;;;;;22.50;92.70;22.60;99380.00;;;;347122;28;91592;-87
2022/09/01 01:01:42;;;;;;;;;;;22.50;92.60;22.50;99374.00;;;;339182;28;83176;-88
2022/09/01 01:01:56;;;;;;;;;;;22.50;92.70;22.60;99376.00;;;;337186;28;91165;-87
2022/09/01 01:02:10;;;;;;;;;;;22.50;92.70;22.70;99382.00;;;;340455;28;83351;-87
2022/09/01 01:02:22;;;;;;;;;;;22.50;92.70;22.70;99378.00;;;;338581;28;88886;-87
2022/09/01 01:02:34;;;;;;;;;;;22.50;92.70;22.60;99380.00;;;;340447;28;82545;-88
2022/09/01 01:02:47;;;;;;;;;;;22.50;92.70;22.60;99377.00;;;;340027;28;91539;-87
2022/09/01 01:03:01;;;;;;;;;;;22.50;92.70;22.60;99383.00;;;;339159;28;82558;-88
2022/09/01 01:03:13;;;;;;;;;;;22.50;92.60;22.60;99380.00;;;;339977;28;90279;-87
2022/09/01 01:03:25;;;;;;;;;;;22.50;92.60;22.60;99379.00;;;;340518;28;83430;-87
2022/09/01 01:03:38;;;;;;;;;;;22.50;92.60;22.60;99381.00;;;;340026;28;90165;-88
2022/09/01 01:03:49;;;;;;;;;;;22.50;92.60;22.50;99371.00;;;;340419;28;83493;-88
2022/09/01 01:04:03;;;;;;;;;;;22.50;92.70;22.60;99383.00;;;;339987;28;92231;-88
2022/09/01 01:04:14;;;;;;;;;;;22.50;92.70;22.50;99385.00;;;;337814;28;83385;-88
2022/09/01 01:04:26;;;;;;;;;;;22.50;92.60;22.50;99385.00;;;;337427;28;89065;-88
2022/09/01 01:04:42;;;;;;;;;;;22.50;92.60;22.50;99384.00;;;;340234;28;82426;-88
2022/09/01 01:04:58;;;;;;;;;;;22.50;92.70;22.60;99383.00;;;;336140;28;91617;-88
2022/09/01 01:05:10;;;;;;;;;;;22.50;92.80;22.60;99379.00;;;;335270;29;83393;-88
2022/09/01 01:05:31;;;;;;;;;;;22.50;92.80;22.60;99381.00;;;;338832;28;90860;-88
2022/09/01 01:05:52;;;;;;;;;;;22.50;92.80;22.60;99380.00;;;;337734;28;83511;-88